sensor_id;sensor_type;location;lat;lon;timestamp;P1;durP1;ratioP1;P2;durP2;ratioP2
5939;SDS011;2995;-31.998;115.906;2023-11-21T00:01:18;1.57;;;0.83;;
5939;SDS011;2995;-31.998;115.906;2023-11-21T00:03:49;2.57;;;1.00;;
5939;SDS011;2995;-31.998;115.906;2023-11-21T00:06:21;3.20;;;1.10;;
5939;SDS011;2995;-31.998;115.906;2023-11-21T00:08:54;1.80;;;0.83;;
5939;SDS011;2995;-31.998;115.906;2023-11-21T00:11:26;1.70;;;0.90;;
5939;SDS011;2995;-31.998;115.906;2023-11-21T00:13:57;2.37;;;1.00;;
5939;SDS011;2995;-31.998;115.906;2023-11-21T00:16:28;3.50;;;0.90;;
5939;SDS011;2995;-31.998;115.906;2023-11-21T00:18:59;1.93;;;1.00;;
5939;SDS011;2995;-31.998;115.906;2023-11-21T00:21:31;1.53;;;0.90;;
5939;SDS011;2995;-31.998;115.906;2023-11-21T00:24:04;1.90;;;0.90;;
5939;SDS011;2995;-31.998;115.906;2023-11-21T00:26:36;5.67;;;1.10;;
5939;SDS011;2995;-31.998;115.906;2023-11-21T00:29:07;2.10;;;1.10;;
5939;SDS011;2995;-31.998;115.906;2023-11-21T00:31:39;1.20;;;0.80;;
5939;SDS011;2995;-31.998;115.906;2023-11-21T00:34:10;2.37;;;0.90;;
5939;SDS011;2995;-31.998;115.906;2023-11-21T00:36:42;1.90;;;0.97;;
5939;SDS011;2995;-31.998;115.906;2023-11-21T00:39:15;2.37;;;0.90;;
5939;SDS011;2995;-31.998;115.906;2023-11-21T00:41:46;1.50;;;0.80;;
5939;SDS011;2995;-31.998;115.906;2023-11-21T00:44:17;3.13;;;1.00;;
5939;SDS011;2995;-31.998;115.906;2023-11-21T00:46:48;1.77;;;0.87;;
5939;SDS011;2995;-31.998;115.906;2023-11-21T00:49:20;4.17;;;1.13;;
5939;SDS011;2995;-31.998;115.906;2023-11-21T00:51:51;2.17;;;0.87;;
5939;SDS011;2995;-31.998;115.906;2023-11-21T00:54:26;2.63;;;0.83;;
5939;SDS011;2995;-31.998;115.906;2023-11-21T00:56:57;5.37;;;0.90;;
5939;SDS011;2995;-31.998;115.906;2023-11-21T00:59:29;3.30;;;0.90;;
5939;SDS011;2995;-31.998;115.906;2023-11-21T01:02:01;20.93;;;1.70;;
5939;SDS011;2995;-31.998;115.906;2023-11-21T01:04:32;5.87;;;1.17;;
5939;SDS011;2995;-31.998;115.906;2023-11-21T01:07:04;4.60;;;0.90;;
5939;SDS011;2995;-31.998;115.906;2023-11-21T01:09:37;2.97;;;1.03;;
5939;SDS011;2995;-31.998;115.906;2023-11-21T01:12:10;3.50;;;1.00;;
5939;SDS011;2995;-31.998;115.906;2023-11-21T01:14:41;4.27;;;0.90;;
5939;SDS011;2995;-31.998;115.906;2023-11-21T01:17:13;3.23;;;1.07;;
5939;SDS011;2995;-31.998;115.906;2023-11-21T01:19:44;2.50;;;1.00;;
5939;SDS011;2995;-31.998;115.906;2023-11-21T01:22:15;5.93;;;1.07;;
5939;SDS011;2995;-31.998;115.906;2023-11-21T01:24:54;3.37;;;1.40;;
5939;SDS011;2995;-31.998;115.906;2023-11-21T01:27:25;6.17;;;1.20;;
5939;SDS011;2995;-31.998;115.906;2023-11-21T01:29:56;4.53;;;1.00;;
5939;SDS011;2995;-31.998;115.906;2023-11-21T01:32:27;1.93;;;0.90;;
5939;SDS011;2995;-31.998;115.906;2023-11-21T01:34:59;2.83;;;0.80;;
5939;SDS011;2995;-31.998;115.906;2023-11-21T01:37:32;7.27;;;1.00;;
5939;SDS011;2995;-31.998;115.906;2023-11-21T01:40:06;1.87;;;1.00;;
5939;SDS011;2995;-31.998;115.906;2023-11-21T01:42:40;1.60;;;1.10;;
5939;SDS011;2995;-31.998;115.906;2023-11-21T01:45:13;2.00;;;1.00;;
5939;SDS011;2995;-31.998;115.906;2023-11-21T01:47:44;1.87;;;0.97;;
5939;SDS011;2995;-31.998;115.906;2023-11-21T01:50:16;3.23;;;0.97;;
5939;SDS011;2995;-31.998;115.906;2023-11-21T01:52:48;0.93;;;0.80;;
5939;SDS011;2995;-31.998;115.906;2023-11-21T01:55:22;3.90;;;1.00;;
5939;SDS011;2995;-31.998;115.906;2023-11-21T01:57:53;6.07;;;1.00;;
5939;SDS011;2995;-31.998;115.906;2023-11-21T02:00:25;8.53;;;0.90;;
5939;SDS011;2995;-31.998;115.906;2023-11-21T02:02:57;3.27;;;0.90;;
5939;SDS011;2995;-31.998;115.906;2023-11-21T02:05:28;1.63;;;0.83;;
5939;SDS011;2995;-31.998;115.906;2023-11-21T02:08:00;3.03;;;1.07;;
5939;SDS011;2995;-31.998;115.906;2023-11-21T02:10:33;2.17;;;1.00;;
5939;SDS011;2995;-31.998;115.906;2023-11-21T02:13:05;2.37;;;1.00;;
5939;SDS011;2995;-31.998;115.906;2023-11-21T02:15:37;1.67;;;0.80;;
5939;SDS011;2995;-31.998;115.906;2023-11-21T02:18:08;1.77;;;0.80;;
5939;SDS011;2995;-31.998;115.906;2023-11-21T02:20:39;2.13;;;0.77;;
5939;SDS011;2995;-31.998;115.906;2023-11-21T02:23:12;2.50;;;1.00;;
5939;SDS011;2995;-31.998;115.906;2023-11-21T02:25:44;1.77;;;0.97;;
5939;SDS011;2995;-31.998;115.906;2023-11-21T02:28:15;5.10;;;1.20;;
5939;SDS011;2995;-31.998;115.906;2023-11-21T02:30:51;1.53;;;0.90;;
5939;SDS011;2995;-31.998;115.906;2023-11-21T02:33:25;2.00;;;0.90;;
5939;SDS011;2995;-31.998;115.906;2023-11-21T02:35:56;7.80;;;0.97;;
5939;SDS011;2995;-31.998;115.906;2023-11-21T02:38:29;2.97;;;1.00;;
5939;SDS011;2995;-31.998;115.906;2023-11-21T02:41:00;1.30;;;0.87;;
5939;SDS011;2995;-31.998;115.906;2023-11-21T02:43:32;2.30;;;0.80;;
5939;SDS011;2995;-31.998;115.906;2023-11-21T02:46:05;1.97;;;1.00;;
5939;SDS011;2995;-31.998;115.906;2023-11-21T02:48:37;2.67;;;0.83;;
5939;SDS011;2995;-31.998;115.906;2023-11-21T02:51:08;1.93;;;0.90;;
5939;SDS011;2995;-31.998;115.906;2023-11-21T02:53:42;5.00;;;1.00;;
5939;SDS011;2995;-31.998;115.906;2023-11-21T02:56:13;4.00;;;0.80;;
5939;SDS011;2995;-31.998;115.906;2023-11-21T02:58:44;2.53;;;0.87;;
5939;SDS011;2995;-31.998;115.906;2023-11-21T03:01:15;7.27;;;1.00;;
5939;SDS011;2995;-31.998;115.906;2023-11-21T03:03:46;1.50;;;0.90;;
5939;SDS011;2995;-31.998;115.906;2023-11-21T03:06:18;5.70;;;1.10;;
5939;SDS011;2995;-31.998;115.906;2023-11-21T03:08:51;1.20;;;0.90;;
5939;SDS011;2995;-31.998;115.906;2023-11-21T03:11:23;2.17;;;1.00;;
5939;SDS011;2995;-31.998;115.906;2023-11-21T03:13:54;1.70;;;0.90;;
5939;SDS011;2995;-31.998;115.906;2023-11-21T03:16:25;2.33;;;1.00;;
5939;SDS011;2995;-31.998;115.906;2023-11-21T03:18:57;2.47;;;0.90;;
5939;SDS011;2995;-31.998;115.906;2023-11-21T03:21:29;2.13;;;0.90;;
5939;SDS011;2995;-31.998;115.906;2023-11-21T03:24:02;3.60;;;1.00;;
5939;SDS011;2995;-31.998;115.906;2023-11-21T03:26:34;2.00;;;1.03;;
5939;SDS011;2995;-31.998;115.906;2023-11-21T03:29:06;4.33;;;1.07;;
5939;SDS011;2995;-31.998;115.906;2023-11-21T03:31:37;1.70;;;0.93;;
5939;SDS011;2995;-31.998;115.906;2023-11-21T03:34:14;1.50;;;0.90;;
5939;SDS011;2995;-31.998;115.906;2023-11-21T03:36:45;1.80;;;0.90;;
5939;SDS011;2995;-31.998;115.906;2023-11-21T03:39:18;2.03;;;0.83;;
5939;SDS011;2995;-31.998;115.906;2023-11-21T03:41:52;2.33;;;0.90;;
5939;SDS011;2995;-31.998;115.906;2023-11-21T03:44:23;2.27;;;0.80;;
5939;SDS011;2995;-31.998;115.906;2023-11-21T03:46:54;1.60;;;0.80;;
5939;SDS011;2995;-31.998;115.906;2023-11-21T03:49:25;1.50;;;0.93;;
5939;SDS011;2995;-31.998;115.906;2023-11-21T03:51:57;1.50;;;0.80;;
5939;SDS011;2995;-31.998;115.906;2023-11-21T03:54:30;1.67;;;0.90;;
5939;SDS011;2995;-31.998;115.906;2023-11-21T03:57:02;2.70;;;0.87;;
5939;SDS011;2995;-31.998;115.906;2023-11-21T03:59:34;3.00;;;0.90;;
5939;SDS011;2995;-31.998;115.906;2023-11-21T04:02:05;1.30;;;0.80;;
5939;SDS011;2995;-31.998;115.906;2023-11-21T04:04:36;2.50;;;0.93;;
5939;SDS011;2995;-31.998;115.906;2023-11-21T04:07:08;1.70;;;0.83;;
5939;SDS011;2995;-31.998;115.906;2023-11-21T04:09:41;1.63;;;0.83;;
5939;SDS011;2995;-31.998;115.906;2023-11-21T04:12:13;4.20;;;0.90;;
5939;SDS011;2995;-31.998;115.906;2023-11-21T04:14:44;1.93;;;0.90;;
5939;SDS011;2995;-31.998;115.906;2023-11-21T04:17:18;1.40;;;0.70;;
5939;SDS011;2995;-31.998;115.906;2023-11-21T04:19:49;2.17;;;0.80;;
5939;SDS011;2995;-31.998;115.906;2023-11-21T04:22:20;3.03;;;0.90;;
5939;SDS011;2995;-31.998;115.906;2023-11-21T04:24:53;2.10;;;1.17;;
5939;SDS011;2995;-31.998;115.906;2023-11-21T04:27:24;1.97;;;1.00;;
5939;SDS011;2995;-31.998;115.906;2023-11-21T04:29:56;2.47;;;0.90;;
5939;SDS011;2995;-31.998;115.906;2023-11-21T04:32:27;1.40;;;0.67;;
5939;SDS011;2995;-31.998;115.906;2023-11-21T04:34:58;3.80;;;0.90;;
5939;SDS011;2995;-31.998;115.906;2023-11-21T04:37:30;3.03;;;0.90;;
5939;SDS011;2995;-31.998;115.906;2023-11-21T04:40:03;1.30;;;0.77;;
5939;SDS011;2995;-31.998;115.906;2023-11-21T04:42:35;2.30;;;0.80;;
5939;SDS011;2995;-31.998;115.906;2023-11-21T04:45:07;4.30;;;1.17;;
5939;SDS011;2995;-31.998;115.906;2023-11-21T04:47:39;2.53;;;1.20;;
5939;SDS011;2995;-31.998;115.906;2023-11-21T04:50:11;1.93;;;0.90;;
5939;SDS011;2995;-31.998;115.906;2023-11-21T04:52:42;3.80;;;0.77;;
5939;SDS011;2995;-31.998;115.906;2023-11-21T04:55:15;4.03;;;0.90;;
5939;SDS011;2995;-31.998;115.906;2023-11-21T04:57:46;2.40;;;0.87;;
5939;SDS011;2995;-31.998;115.906;2023-11-21T05:00:18;2.43;;;0.80;;
5939;SDS011;2995;-31.998;115.906;2023-11-21T05:02:49;1.90;;;0.90;;
5939;SDS011;2995;-31.998;115.906;2023-11-21T05:05:20;1.00;;;0.70;;
5939;SDS011;2995;-31.998;115.906;2023-11-21T05:07:52;2.23;;;0.80;;
5939;SDS011;2995;-31.998;115.906;2023-11-21T05:10:25;2.17;;;1.10;;
5939;SDS011;2995;-31.998;115.906;2023-11-21T05:12:56;4.60;;;1.03;;
5939;SDS011;2995;-31.998;115.906;2023-11-21T05:15:28;1.30;;;1.10;;
5939;SDS011;2995;-31.998;115.906;2023-11-21T05:17:59;2.90;;;1.03;;
5939;SDS011;2995;-31.998;115.906;2023-11-21T05:20:31;2.40;;;1.07;;
5939;SDS011;2995;-31.998;115.906;2023-11-21T05:23:04;1.50;;;0.90;;
5939;SDS011;2995;-31.998;115.906;2023-11-21T05:25:37;2.53;;;0.90;;
5939;SDS011;2995;-31.998;115.906;2023-11-21T05:28:09;1.57;;;1.10;;
5939;SDS011;2995;-31.998;115.906;2023-11-21T05:30:41;2.23;;;0.90;;
5939;SDS011;2995;-31.998;115.906;2023-11-21T05:33:12;2.57;;;1.00;;
5939;SDS011;2995;-31.998;115.906;2023-11-21T05:35:43;2.07;;;0.80;;
5939;SDS011;2995;-31.998;115.906;2023-11-21T05:38:15;1.73;;;0.80;;
5939;SDS011;2995;-31.998;115.906;2023-11-21T05:40:50;3.33;;;0.80;;
5939;SDS011;2995;-31.998;115.906;2023-11-21T05:43:21;1.40;;;0.80;;
5939;SDS011;2995;-31.998;115.906;2023-11-21T05:45:52;2.13;;;1.10;;
5939;SDS011;2995;-31.998;115.906;2023-11-21T05:48:23;2.07;;;1.10;;
5939;SDS011;2995;-31.998;115.906;2023-11-21T05:50:54;2.33;;;0.80;;
5939;SDS011;2995;-31.998;115.906;2023-11-21T05:53:26;4.20;;;1.00;;
5939;SDS011;2995;-31.998;115.906;2023-11-21T05:55:59;1.17;;;0.80;;
5939;SDS011;2995;-31.998;115.906;2023-11-21T05:58:30;1.53;;;0.80;;
5939;SDS011;2995;-31.998;115.906;2023-11-21T06:01:01;3.20;;;1.17;;
5939;SDS011;2995;-31.998;115.906;2023-11-21T06:03:35;3.13;;;0.90;;
5939;SDS011;2995;-31.998;115.906;2023-11-21T06:06:07;2.90;;;0.70;;
5939;SDS011;2995;-31.998;115.906;2023-11-21T06:08:39;2.50;;;1.00;;
5939;SDS011;2995;-31.998;115.906;2023-11-21T06:11:12;3.50;;;1.20;;
5939;SDS011;2995;-31.998;115.906;2023-11-21T06:13:43;2.30;;;0.90;;
5939;SDS011;2995;-31.998;115.906;2023-11-21T06:16:16;2.40;;;1.20;;
5939;SDS011;2995;-31.998;115.906;2023-11-21T06:18:47;2.03;;;0.80;;
5939;SDS011;2995;-31.998;115.906;2023-11-21T06:21:18;1.90;;;0.80;;
5939;SDS011;2995;-31.998;115.906;2023-11-21T06:23:50;2.80;;;0.90;;
5939;SDS011;2995;-31.998;115.906;2023-11-21T06:26:25;1.40;;;0.80;;
5939;SDS011;2995;-31.998;115.906;2023-11-21T06:28:58;1.73;;;0.80;;
5939;SDS011;2995;-31.998;115.906;2023-11-21T06:31:29;1.70;;;0.83;;
5939;SDS011;2995;-31.998;115.906;2023-11-21T06:34:00;1.47;;;0.70;;
5939;SDS011;2995;-31.998;115.906;2023-11-21T06:36:31;4.73;;;0.90;;
5939;SDS011;2995;-31.998;115.906;2023-11-21T06:39:03;4.30;;;0.83;;
5939;SDS011;2995;-31.998;115.906;2023-11-21T06:41:37;2.77;;;0.90;;
5939;SDS011;2995;-31.998;115.906;2023-11-21T06:44:08;2.03;;;0.87;;
5939;SDS011;2995;-31.998;115.906;2023-11-21T06:46:39;2.70;;;1.00;;
5939;SDS011;2995;-31.998;115.906;2023-11-21T06:49:11;2.37;;;0.80;;
5939;SDS011;2995;-31.998;115.906;2023-11-21T06:51:42;1.20;;;0.80;;
5939;SDS011;2995;-31.998;115.906;2023-11-21T06:54:13;3.40;;;0.80;;
5939;SDS011;2995;-31.998;115.906;2023-11-21T06:56:46;2.40;;;0.87;;
5939;SDS011;2995;-31.998;115.906;2023-11-21T06:59:19;3.40;;;1.10;;
5939;SDS011;2995;-31.998;115.906;2023-11-21T07:01:51;1.57;;;0.83;;
5939;SDS011;2995;-31.998;115.906;2023-11-21T07:04:22;2.30;;;0.90;;
5939;SDS011;2995;-31.998;115.906;2023-11-21T07:06:54;2.27;;;0.80;;
5939;SDS011;2995;-31.998;115.906;2023-11-21T07:09:25;1.43;;;0.70;;
5939;SDS011;2995;-31.998;115.906;2023-11-21T07:11:58;1.60;;;0.90;;
5939;SDS011;2995;-31.998;115.906;2023-11-21T07:14:30;2.80;;;1.10;;
5939;SDS011;2995;-31.998;115.906;2023-11-21T07:17:01;6.20;;;0.90;;
5939;SDS011;2995;-31.998;115.906;2023-11-21T07:19:33;2.40;;;0.83;;
5939;SDS011;2995;-31.998;115.906;2023-11-21T07:22:04;1.93;;;0.83;;
5939;SDS011;2995;-31.998;115.906;2023-11-21T07:24:36;2.40;;;0.80;;
5939;SDS011;2995;-31.998;115.906;2023-11-21T07:27:09;2.50;;;0.87;;
5939;SDS011;2995;-31.998;115.906;2023-11-21T07:29:40;3.10;;;0.93;;
5939;SDS011;2995;-31.998;115.906;2023-11-21T07:32:12;0.80;;;0.63;;
5939;SDS011;2995;-31.998;115.906;2023-11-21T07:34:43;1.57;;;0.80;;
5939;SDS011;2995;-31.998;115.906;2023-11-21T07:37:14;1.90;;;1.00;;
5939;SDS011;2995;-31.998;115.906;2023-11-21T07:39:46;2.17;;;1.00;;
5939;SDS011;2995;-31.998;115.906;2023-11-21T07:42:22;3.67;;;0.70;;
5939;SDS011;2995;-31.998;115.906;2023-11-21T07:44:54;3.20;;;1.00;;
5939;SDS011;2995;-31.998;115.906;2023-11-21T07:47:25;3.33;;;0.90;;
5939;SDS011;2995;-31.998;115.906;2023-11-21T07:49:57;1.50;;;0.80;;
5939;SDS011;2995;-31.998;115.906;2023-11-21T07:52:29;1.57;;;0.90;;
5939;SDS011;2995;-31.998;115.906;2023-11-21T07:55:00;2.60;;;1.03;;
5939;SDS011;2995;-31.998;115.906;2023-11-21T07:57:33;2.07;;;1.00;;
5939;SDS011;2995;-31.998;115.906;2023-11-21T08:00:05;3.40;;;0.77;;
5939;SDS011;2995;-31.998;115.906;2023-11-21T08:02:38;1.30;;;0.87;;
5939;SDS011;2995;-31.998;115.906;2023-11-21T08:05:12;1.80;;;0.73;;
5939;SDS011;2995;-31.998;115.906;2023-11-21T08:07:44;2.53;;;0.90;;
5939;SDS011;2995;-31.998;115.906;2023-11-21T08:10:15;3.70;;;1.07;;
5939;SDS011;2995;-31.998;115.906;2023-11-21T08:12:49;6.40;;;0.83;;
5939;SDS011;2995;-31.998;115.906;2023-11-21T08:15:20;1.83;;;0.80;;
5939;SDS011;2995;-31.998;115.906;2023-11-21T08:17:52;2.00;;;1.07;;
5939;SDS011;2995;-31.998;115.906;2023-11-21T08:20:23;1.40;;;0.90;;
5939;SDS011;2995;-31.998;115.906;2023-11-21T08:22:54;1.27;;;0.80;;
5939;SDS011;2995;-31.998;115.906;2023-11-21T08:25:25;4.87;;;1.10;;
5939;SDS011;2995;-31.998;115.906;2023-11-21T08:27:59;2.03;;;0.70;;
5939;SDS011;2995;-31.998;115.906;2023-11-21T08:30:30;2.17;;;0.80;;
5939;SDS011;2995;-31.998;115.906;2023-11-21T08:33:01;1.33;;;0.70;;
5939;SDS011;2995;-31.998;115.906;2023-11-21T08:35:32;2.77;;;0.90;;
5939;SDS011;2995;-31.998;115.906;2023-11-21T08:38:04;1.87;;;0.83;;
5939;SDS011;2995;-31.998;115.906;2023-11-21T08:40:36;3.10;;;1.00;;
5939;SDS011;2995;-31.998;115.906;2023-11-21T08:43:10;1.60;;;0.80;;
5939;SDS011;2995;-31.998;115.906;2023-11-21T08:45:42;1.73;;;0.87;;
5939;SDS011;2995;-31.998;115.906;2023-11-21T08:48:13;5.23;;;1.20;;
5939;SDS011;2995;-31.998;115.906;2023-11-21T08:50:45;3.00;;;1.00;;
5939;SDS011;2995;-31.998;115.906;2023-11-21T08:53:17;3.47;;;0.70;;
5939;SDS011;2995;-31.998;115.906;2023-11-21T08:55:48;1.63;;;0.80;;
5939;SDS011;2995;-31.998;115.906;2023-11-21T08:58:22;3.77;;;1.00;;
5939;SDS011;2995;-31.998;115.906;2023-11-21T09:00:53;2.50;;;0.80;;
5939;SDS011;2995;-31.998;115.906;2023-11-21T09:03:24;4.43;;;0.87;;
5939;SDS011;2995;-31.998;115.906;2023-11-21T09:05:55;4.83;;;1.20;;
5939;SDS011;2995;-31.998;115.906;2023-11-21T09:08:27;2.17;;;0.80;;
5939;SDS011;2995;-31.998;115.906;2023-11-21T09:10:58;2.97;;;0.80;;
5939;SDS011;2995;-31.998;115.906;2023-11-21T09:13:31;2.20;;;0.90;;
5939;SDS011;2995;-31.998;115.906;2023-11-21T09:16:03;1.00;;;0.70;;
5939;SDS011;2995;-31.998;115.906;2023-11-21T09:18:34;2.43;;;0.87;;
5939;SDS011;2995;-31.998;115.906;2023-11-21T09:21:06;1.87;;;1.00;;
5939;SDS011;2995;-31.998;115.906;2023-11-21T09:23:37;4.70;;;0.90;;
5939;SDS011;2995;-31.998;115.906;2023-11-21T09:26:08;1.03;;;0.80;;
5939;SDS011;2995;-31.998;115.906;2023-11-21T09:28:44;3.13;;;0.70;;
5939;SDS011;2995;-31.998;115.906;2023-11-21T09:31:15;1.33;;;0.80;;
5939;SDS011;2995;-31.998;115.906;2023-11-21T09:33:49;3.13;;;1.00;;
5939;SDS011;2995;-31.998;115.906;2023-11-21T09:36:20;3.03;;;0.93;;
5939;SDS011;2995;-31.998;115.906;2023-11-21T09:38:53;1.20;;;0.80;;
5939;SDS011;2995;-31.998;115.906;2023-11-21T09:41:29;1.40;;;0.80;;
5939;SDS011;2995;-31.998;115.906;2023-11-21T09:44:13;3.47;;;0.90;;
5939;SDS011;2995;-31.998;115.906;2023-11-21T09:46:48;1.63;;;0.70;;
5939;SDS011;2995;-31.998;115.906;2023-11-21T09:49:22;7.03;;;1.17;;
5939;SDS011;2995;-31.998;115.906;2023-11-21T09:51:55;1.30;;;0.90;;
5939;SDS011;2995;-31.998;115.906;2023-11-21T09:54:29;2.27;;;0.90;;
5939;SDS011;2995;-31.998;115.906;2023-11-21T09:57:01;3.37;;;0.70;;
5939;SDS011;2995;-31.998;115.906;2023-11-21T09:59:35;1.10;;;0.70;;
5939;SDS011;2995;-31.998;115.906;2023-11-21T10:02:07;2.63;;;0.83;;
5939;SDS011;2995;-31.998;115.906;2023-11-21T10:04:40;2.00;;;0.90;;
5939;SDS011;2995;-31.998;115.906;2023-11-21T10:07:11;1.43;;;0.70;;
5939;SDS011;2995;-31.998;115.906;2023-11-21T10:09:47;1.50;;;0.80;;
5939;SDS011;2995;-31.998;115.906;2023-11-21T10:12:19;1.77;;;0.90;;
5939;SDS011;2995;-31.998;115.906;2023-11-21T10:14:54;1.33;;;0.70;;
5939;SDS011;2995;-31.998;115.906;2023-11-21T10:17:27;3.60;;;0.80;;
5939;SDS011;2995;-31.998;115.906;2023-11-21T10:20:03;2.03;;;1.00;;
5939;SDS011;2995;-31.998;115.906;2023-11-21T10:22:37;3.57;;;0.80;;
5939;SDS011;2995;-31.998;115.906;2023-11-21T10:25:10;3.00;;;1.20;;
5939;SDS011;2995;-31.998;115.906;2023-11-21T10:27:46;2.03;;;0.73;;
5939;SDS011;2995;-31.998;115.906;2023-11-21T10:30:34;1.37;;;0.90;;
5939;SDS011;2995;-31.998;115.906;2023-11-21T10:33:06;1.60;;;1.00;;
5939;SDS011;2995;-31.998;115.906;2023-11-21T10:35:43;3.27;;;1.10;;
5939;SDS011;2995;-31.998;115.906;2023-11-21T10:38:17;2.07;;;0.80;;
5939;SDS011;2995;-31.998;115.906;2023-11-21T10:40:50;5.73;;;0.90;;
5939;SDS011;2995;-31.998;115.906;2023-11-21T10:43:22;2.90;;;0.70;;
5939;SDS011;2995;-31.998;115.906;2023-11-21T10:45:59;7.83;;;0.90;;
5939;SDS011;2995;-31.998;115.906;2023-11-21T10:48:31;25.00;;;2.07;;
5939;SDS011;2995;-31.998;115.906;2023-11-21T10:51:06;3.73;;;0.87;;
5939;SDS011;2995;-31.998;115.906;2023-11-21T10:53:41;3.00;;;0.90;;
5939;SDS011;2995;-31.998;115.906;2023-11-21T10:56:13;2.23;;;0.80;;
5939;SDS011;2995;-31.998;115.906;2023-11-21T10:58:48;4.00;;;0.90;;
5939;SDS011;2995;-31.998;115.906;2023-11-21T11:01:22;4.20;;;1.00;;
5939;SDS011;2995;-31.998;115.906;2023-11-21T11:03:58;3.87;;;1.10;;
5939;SDS011;2995;-31.998;115.906;2023-11-21T11:06:31;4.13;;;1.10;;
5939;SDS011;2995;-31.998;115.906;2023-11-21T11:09:05;8.00;;;1.40;;
5939;SDS011;2995;-31.998;115.906;2023-11-21T11:11:39;7.03;;;1.20;;
5939;SDS011;2995;-31.998;115.906;2023-11-21T11:14:10;2.33;;;0.90;;
5939;SDS011;2995;-31.998;115.906;2023-11-21T11:16:45;4.13;;;1.40;;
5939;SDS011;2995;-31.998;115.906;2023-11-21T11:19:16;2.03;;;0.90;;
5939;SDS011;2995;-31.998;115.906;2023-11-21T11:21:49;3.07;;;1.00;;
5939;SDS011;2995;-31.998;115.906;2023-11-21T11:24:36;3.57;;;0.97;;
5939;SDS011;2995;-31.998;115.906;2023-11-21T11:27:23;2.27;;;1.30;;
5939;SDS011;2995;-31.998;115.906;2023-11-21T11:30:07;1.73;;;1.03;;
5939;SDS011;2995;-31.998;115.906;2023-11-21T11:32:51;3.53;;;1.53;;
5939;SDS011;2995;-31.998;115.906;2023-11-21T11:35:30;5.50;;;1.23;;
5939;SDS011;2995;-31.998;115.906;2023-11-21T11:38:08;3.10;;;0.97;;
5939;SDS011;2995;-31.998;115.906;2023-11-21T11:40:40;4.77;;;1.13;;
5939;SDS011;2995;-31.998;115.906;2023-11-21T11:43:16;5.67;;;2.07;;
5939;SDS011;2995;-31.998;115.906;2023-11-21T11:45:57;5.07;;;1.60;;
5939;SDS011;2995;-31.998;115.906;2023-11-21T11:48:31;3.33;;;1.80;;
5939;SDS011;2995;-31.998;115.906;2023-11-21T11:51:09;9.27;;;3.67;;
5939;SDS011;2995;-31.998;115.906;2023-11-21T11:53:43;9.00;;;3.37;;
5939;SDS011;2995;-31.998;115.906;2023-11-21T11:56:25;8.47;;;2.80;;
5939;SDS011;2995;-31.998;115.906;2023-11-21T11:58:57;8.17;;;3.60;;
5939;SDS011;2995;-31.998;115.906;2023-11-21T12:01:31;8.23;;;3.60;;
5939;SDS011;2995;-31.998;115.906;2023-11-21T12:04:27;9.47;;;4.23;;
5939;SDS011;2995;-31.998;115.906;2023-11-21T12:07:04;11.83;;;6.63;;
5939;SDS011;2995;-31.998;115.906;2023-11-21T12:09:36;8.10;;;4.90;;
5939;SDS011;2995;-31.998;115.906;2023-11-21T12:12:08;6.77;;;2.50;;
5939;SDS011;2995;-31.998;115.906;2023-11-21T12:14:40;8.00;;;3.00;;
5939;SDS011;2995;-31.998;115.906;2023-11-21T12:17:12;6.17;;;3.00;;
5939;SDS011;2995;-31.998;115.906;2023-11-21T12:19:45;5.53;;;3.60;;
5939;SDS011;2995;-31.998;115.906;2023-11-21T12:22:18;14.47;;;10.70;;
5939;SDS011;2995;-31.998;115.906;2023-11-21T12:24:50;7.70;;;5.37;;
5939;SDS011;2995;-31.998;115.906;2023-11-21T12:27:21;8.93;;;7.40;;
5939;SDS011;2995;-31.998;115.906;2023-11-21T12:29:52;5.93;;;5.00;;
5939;SDS011;2995;-31.998;115.906;2023-11-21T12:32:25;3.10;;;1.30;;
5939;SDS011;2995;-31.998;115.906;2023-11-21T12:34:58;2.17;;;1.30;;
5939;SDS011;2995;-31.998;115.906;2023-11-21T12:37:32;4.27;;;1.60;;
5939;SDS011;2995;-31.998;115.906;2023-11-21T12:40:04;2.83;;;1.30;;
5939;SDS011;2995;-31.998;115.906;2023-11-21T12:42:38;3.00;;;1.40;;
5939;SDS011;2995;-31.998;115.906;2023-11-21T12:45:18;2.43;;;1.40;;
5939;SDS011;2995;-31.998;115.906;2023-11-21T12:47:54;2.67;;;1.27;;
5939;SDS011;2995;-31.998;115.906;2023-11-21T12:50:28;4.70;;;1.27;;
5939;SDS011;2995;-31.998;115.906;2023-11-21T12:53:01;4.53;;;0.90;;
5939;SDS011;2995;-31.998;115.906;2023-11-21T12:55:34;2.60;;;1.00;;
5939;SDS011;2995;-31.998;115.906;2023-11-21T12:58:06;2.03;;;0.90;;
5939;SDS011;2995;-31.998;115.906;2023-11-21T13:00:39;3.00;;;1.00;;
5939;SDS011;2995;-31.998;115.906;2023-11-21T13:03:15;5.63;;;1.00;;
5939;SDS011;2995;-31.998;115.906;2023-11-21T13:05:53;2.10;;;0.90;;
5939;SDS011;2995;-31.998;115.906;2023-11-21T13:08:25;3.10;;;0.80;;
5939;SDS011;2995;-31.998;115.906;2023-11-21T13:10:56;2.20;;;0.90;;
5939;SDS011;2995;-31.998;115.906;2023-11-21T13:13:29;5.00;;;1.20;;
5939;SDS011;2995;-31.998;115.906;2023-11-21T13:16:00;3.73;;;1.00;;
5939;SDS011;2995;-31.998;115.906;2023-11-21T13:18:34;5.47;;;1.10;;
5939;SDS011;2995;-31.998;115.906;2023-11-21T13:21:08;5.27;;;0.93;;
5939;SDS011;2995;-31.998;115.906;2023-11-21T13:23:41;8.73;;;1.03;;
5939;SDS011;2995;-31.998;115.906;2023-11-21T13:26:15;2.70;;;0.80;;
5939;SDS011;2995;-31.998;115.906;2023-11-21T13:28:47;3.23;;;0.83;;
5939;SDS011;2995;-31.998;115.906;2023-11-21T13:31:18;1.23;;;0.80;;
5939;SDS011;2995;-31.998;115.906;2023-11-21T13:33:57;3.07;;;1.03;;
5939;SDS011;2995;-31.998;115.906;2023-11-21T13:36:33;3.63;;;0.83;;
5939;SDS011;2995;-31.998;115.906;2023-11-21T13:39:04;4.73;;;0.80;;
5939;SDS011;2995;-31.998;115.906;2023-11-21T13:41:41;3.80;;;1.00;;
5939;SDS011;2995;-31.998;115.906;2023-11-21T13:44:14;1.50;;;0.90;;
5939;SDS011;2995;-31.998;115.906;2023-11-21T13:46:52;2.63;;;1.10;;
5939;SDS011;2995;-31.998;115.906;2023-11-21T13:49:25;2.03;;;0.87;;
5939;SDS011;2995;-31.998;115.906;2023-11-21T13:52:03;1.77;;;0.80;;
5939;SDS011;2995;-31.998;115.906;2023-11-21T13:54:37;2.73;;;1.07;;
5939;SDS011;2995;-31.998;115.906;2023-11-21T13:57:08;1.60;;;1.10;;
5939;SDS011;2995;-31.998;115.906;2023-11-21T13:59:40;5.20;;;1.20;;
5939;SDS011;2995;-31.998;115.906;2023-11-21T14:02:11;1.83;;;0.90;;
5939;SDS011;2995;-31.998;115.906;2023-11-21T14:04:45;1.60;;;1.10;;
5939;SDS011;2995;-31.998;115.906;2023-11-21T14:07:24;3.60;;;0.93;;
5939;SDS011;2995;-31.998;115.906;2023-11-21T14:10:01;1.57;;;0.80;;
5939;SDS011;2995;-31.998;115.906;2023-11-21T14:12:34;1.70;;;1.20;;
5939;SDS011;2995;-31.998;115.906;2023-11-21T14:15:07;1.10;;;0.80;;
5939;SDS011;2995;-31.998;115.906;2023-11-21T14:17:43;1.90;;;0.80;;
5939;SDS011;2995;-31.998;115.906;2023-11-21T14:20:14;2.30;;;1.10;;
5939;SDS011;2995;-31.998;115.906;2023-11-21T14:22:49;2.43;;;0.90;;
5939;SDS011;2995;-31.998;115.906;2023-11-21T14:25:20;3.87;;;1.10;;
5939;SDS011;2995;-31.998;115.906;2023-11-21T14:27:51;1.33;;;0.80;;
5939;SDS011;2995;-31.998;115.906;2023-11-21T14:30:23;9.53;;;1.10;;
5939;SDS011;2995;-31.998;115.906;2023-11-21T14:32:55;1.60;;;0.80;;
5939;SDS011;2995;-31.998;115.906;2023-11-21T14:35:27;3.80;;;1.17;;
5939;SDS011;2995;-31.998;115.906;2023-11-21T14:38:00;2.70;;;0.87;;
5939;SDS011;2995;-31.998;115.906;2023-11-21T14:40:32;1.67;;;0.90;;
5939;SDS011;2995;-31.998;115.906;2023-11-21T14:43:03;2.83;;;0.80;;
5939;SDS011;2995;-31.998;115.906;2023-11-21T14:45:35;2.30;;;1.00;;
5939;SDS011;2995;-31.998;115.906;2023-11-21T14:48:06;1.53;;;1.00;;
5939;SDS011;2995;-31.998;115.906;2023-11-21T14:50:42;1.80;;;1.00;;
5939;SDS011;2995;-31.998;115.906;2023-11-21T14:53:28;1.57;;;0.80;;
5939;SDS011;2995;-31.998;115.906;2023-11-21T14:56:10;10.97;;;0.90;;
5939;SDS011;2995;-31.998;115.906;2023-11-21T14:58:47;0.90;;;0.60;;
5939;SDS011;2995;-31.998;115.906;2023-11-21T15:01:19;3.07;;;0.93;;
5939;SDS011;2995;-31.998;115.906;2023-11-21T15:04:01;5.50;;;0.97;;
5939;SDS011;2995;-31.998;115.906;2023-11-21T15:06:33;1.93;;;0.70;;